Ardsley On Hudson, NY

12:19 PM EDT on May 28, 2015 (GMT -0400)
Tarryhill | | Change Station
CLOSE
Current Station
Personal Weather Station
Location: Tarrytown, NY
Elevation: 323 ft
Nearby Weather Stations

Elev 323 ft 41.05 °N, 73.85 °W | Updated 26 seconds ago

Overcast
Overcast
78.9 °F
Feels Like 82 °F
N
4.6
Wind Variable Wind from WSW
Gusts 4.6 mph

Today
High -- | Low -- °F
--% Chance of Precip.
Yesterday
High -- | Low -- °F
Precip. -- in
5:27 AM 8:18 PM
Waxing Gibbous, 77% visible
Pressure 30.15 in
Visibility 5.0 miles
Clouds Mostly Cloudy 1500 ft
Heat Index 82 °F
Dew Point 72 °F
Humidity 78%
Rainfall 0.00 in
Snow Depth Not available.
UV 6 out of 12
Pollen 8.50 out of 12
Air Quality Not available.
Flu Activity Widespread
METAR KHPN 281556Z 17006KT 5SM HZ BKN015 24/20 A3016 RMK AO2 SLP208 T02440200

More Conditions Fewer Conditions

Pressure 30.15 in
Visibility 5.0 miles
Clouds Mostly Cloudy 1500 ft
Heat Index 82 °F
Dew Point 72 °F
Humidity 78%
Rainfall 0.00 in
Snow Depth Not available.
UV 6 out of 12
Pollen 8.50 out of 12
Air Quality Not available.
Flu Activity Widespread
METAR KHPN 281556Z 17006KT 5SM HZ BKN015 24/20 A3016 RMK AO2 SLP208 T02440200

More Conditions Fewer Conditions

10-Day Weather Forecast

Almanac

Astronomy

May. 28, 2015 Rise Set
Actual Time
Civil Twilight
Nautical Twilight
Astronomical Twilight
Moon
Length of Visible Light
Length of Day
Tomorrow will be .
, % of the Moon is Illuminated

Today's Extremes

State Highs State Lows

Community

WunderPhotos

Upload Photos

1,825,003 photos uploaded!

WunderBlogs® & News

Nearby

Air Quality

  Air Quality AQ Index Pollutant
Not available.

Snow Depth

Station Depth Elevation

Earthquake Activity

City Distance Mag. Time & Date
Minimum magnitude displayed is 2.5.

Coastal Water Temperatures

Place Temperature

Stations

Nearby Weather Stations

Station Location Temp. Windchill Dew Point Humidity Wind Precip. Elev Updated Type
                   
Severe Thunderstorm Watch
Statement as of 12:03 PM EDT on May 28, 2015

Severe Thunderstorm Watch 233 remains in effect until 700 PM EDT

NY
. New York counties included are

Albany Bronx Columbia
Dutchess Greene Kings
Nassau New York Orange
Putnam Queens Rensselaer
Richmond Rockland Suffolk
Ulster Washington Westchester